createdAt,value
2019-02-17T00:00:58.336Z,2.46
2019-02-17T00:03:05.441Z,2.45
2019-02-17T00:05:12.582Z,2.47
2019-02-17T00:07:19.772Z,2.46
2019-02-17T00:09:26.809Z,2.45
2019-02-17T00:11:34.173Z,2.44
2019-02-17T00:13:41.346Z,2.40
2019-02-17T00:15:48.111Z,2.38
2019-02-17T00:17:55.172Z,2.36
2019-02-17T00:20:02.969Z,2.38
2019-02-17T00:22:10.728Z,2.37
2019-02-17T00:24:17.865Z,2.38
2019-02-17T00:26:24.807Z,2.40
2019-02-17T00:28:31.700Z,2.44
2019-02-17T00:30:38.871Z,2.47
2019-02-17T00:32:45.677Z,2.49
2019-02-17T00:34:52.764Z,2.53
2019-02-17T00:36:59.771Z,2.50
2019-02-17T00:39:08.383Z,2.46
2019-02-17T00:41:15.541Z,2.37
2019-02-17T00:43:22.632Z,2.31
2019-02-17T00:45:29.587Z,2.26
2019-02-17T00:47:36.654Z,2.21
2019-02-17T00:49:43.519Z,2.16
2019-02-17T00:51:50.586Z,2.11
2019-02-17T00:53:57.804Z,2.05
2019-02-17T00:56:04.866Z,1.99
2019-02-17T00:58:11.974Z,1.98
2019-02-17T01:00:19.074Z,1.95
2019-02-17T01:02:29.682Z,1.95
2019-02-17T01:04:37.554Z,1.92
2019-02-17T01:06:44.615Z,1.93
2019-02-17T01:08:51.542Z,1.93
2019-02-17T01:10:59.364Z,1.97
2019-02-17T01:13:06.501Z,2.00
2019-02-17T01:15:14.511Z,2.00
2019-02-17T01:17:21.000Z,1.99
2019-02-17T01:19:28.376Z,2.01
2019-02-17T01:21:35.651Z,2.03
2019-02-17T01:23:43.099Z,2.02
2019-02-17T01:25:50.002Z,1.99
2019-02-17T01:27:56.690Z,1.96
2019-02-17T01:30:03.473Z,1.94
2019-02-17T01:32:10.426Z,1.93
2019-02-17T01:34:18.089Z,1.91
2019-02-17T01:36:25.433Z,1.91
2019-02-17T01:38:32.074Z,1.87
2019-02-17T01:40:38.844Z,1.83
2019-02-17T01:42:45.719Z,1.81
2019-02-17T01:44:53.149Z,1.79
2019-02-17T01:47:00.377Z,1.74
2019-02-17T01:49:07.276Z,1.69
2019-02-17T01:51:14.039Z,1.62
2019-02-17T01:53:20.941Z,1.56
2019-02-17T01:55:28.043Z,1.50
2019-02-17T01:57:35.080Z,1.47
2019-02-17T01:59:41.867Z,1.46
2019-02-17T02:01:50.322Z,1.46
2019-02-17T02:03:57.335Z,1.45
2019-02-17T02:06:06.868Z,1.48
2019-02-17T02:08:15.139Z,1.53
2019-02-17T02:10:22.348Z,1.54
2019-02-17T02:12:29.507Z,1.54
2019-02-17T02:14:36.751Z,1.55
2019-02-17T02:16:44.416Z,1.55
2019-02-17T02:18:52.264Z,1.50
2019-02-17T02:20:59.495Z,1.45
2019-02-17T02:23:06.318Z,1.39
2019-02-17T02:25:13.869Z,1.34
2019-02-17T02:27:21.641Z,1.28
2019-02-17T02:29:40.413Z,1.25
2019-02-17T02:31:39.014Z,1.21
2019-02-17T02:33:46.057Z,1.19
2019-02-17T02:35:52.789Z,1.20
2019-02-17T02:38:00.335Z,1.18
2019-02-17T02:40:08.714Z,1.18
2019-02-17T02:42:15.547Z,1.19
2019-02-17T02:44:22.508Z,1.21
2019-02-17T02:46:29.941Z,1.22
2019-02-17T02:48:37.052Z,1.23
2019-02-17T02:50:43.866Z,1.22
2019-02-17T02:52:50.756Z,1.20
2019-02-17T02:54:57.686Z,1.17
2019-02-17T02:57:04.576Z,1.12
2019-02-17T02:59:12.784Z,1.10
2019-02-17T03:01:20.169Z,1.13
2019-02-17T03:03:27.544Z,1.11
2019-02-17T03:05:34.897Z,1.11
2019-02-17T03:07:42.114Z,1.07
2019-02-17T03:09:49.485Z,1.05
2019-02-17T03:11:56.443Z,1.05
2019-02-17T03:14:03.290Z,1.09
2019-02-17T03:16:10.346Z,1.10
2019-02-17T03:18:17.082Z,1.10
2019-02-17T03:20:24.605Z,1.08
2019-02-17T03:22:31.417Z,1.05
2019-02-17T03:24:38.229Z,1.02
2019-02-17T03:26:45.669Z,0.97
2019-02-17T03:28:52.587Z,0.93
2019-02-17T03:30:59.682Z,0.88
2019-02-17T03:33:06.641Z,0.85
2019-02-17T03:35:13.471Z,0.82
2019-02-17T03:37:20.479Z,0.80
2019-02-17T03:39:27.605Z,0.81
2019-02-17T03:41:35.337Z,0.82
2019-02-17T03:43:48.187Z,0.85
2019-02-17T03:46:00.727Z,0.86
2019-02-17T03:48:07.493Z,0.87
2019-02-17T03:50:14.795Z,0.91
2019-02-17T03:52:22.756Z,0.93
2019-02-17T03:54:30.104Z,0.93
2019-02-17T03:56:38.484Z,0.92
2019-02-17T03:58:45.840Z,0.93
2019-02-17T04:00:53.381Z,0.95
2019-02-17T04:03:00.957Z,1.00
2019-02-17T04:05:08.768Z,1.06
2019-02-17T04:07:16.272Z,1.08
2019-02-17T04:09:25.102Z,1.08
2019-02-17T04:11:32.109Z,1.04
2019-02-17T04:13:40.277Z,0.98
2019-02-17T04:15:47.773Z,0.88
2019-02-17T04:17:55.214Z,0.76
2019-02-17T04:20:04.028Z,0.64
2019-02-17T04:22:11.224Z,0.51
2019-02-17T04:24:18.844Z,0.43
2019-02-17T04:26:26.470Z,0.37
2019-02-17T04:28:33.792Z,0.36
2019-02-17T04:30:40.855Z,0.39
2019-02-17T04:32:48.313Z,0.41
2019-02-17T04:34:55.332Z,0.42
2019-02-17T04:37:02.526Z,0.41
2019-02-17T04:39:10.007Z,0.38
2019-02-17T04:41:17.048Z,0.34
2019-02-17T04:43:24.449Z,0.31
2019-02-17T04:45:31.787Z,0.28
2019-02-17T04:47:39.538Z,0.27
2019-02-17T04:49:47.098Z,0.26
2019-02-17T04:51:54.253Z,0.27
2019-02-17T04:54:01.403Z,0.32
2019-02-17T04:56:08.648Z,0.39
2019-02-17T04:58:15.567Z,0.46
2019-02-17T05:00:22.655Z,0.50
2019-02-17T05:02:50.217Z,0.53
2019-02-17T05:04:57.182Z,0.56
2019-02-17T05:07:04.515Z,0.57
2019-02-17T05:09:11.608Z,0.63
2019-02-17T05:11:18.474Z,0.64
2019-02-17T05:13:25.819Z,0.66
2019-02-17T05:15:33.212Z,0.67
2019-02-17T05:17:40.118Z,0.67
2019-02-17T05:19:46.976Z,0.71
2019-02-17T05:21:54.124Z,0.72
2019-02-17T05:24:00.956Z,0.75
2019-02-17T05:26:07.839Z,0.85
2019-02-17T05:28:15.168Z,0.98
2019-02-17T05:30:21.974Z,1.12
2019-02-17T05:32:28.823Z,1.26
2019-02-17T05:34:36.806Z,1.39
2019-02-17T05:36:43.833Z,1.49
2019-02-17T05:38:51.185Z,1.62
2019-02-17T05:40:58.208Z,1.71
2019-02-17T05:43:05.094Z,1.83
2019-02-17T05:45:11.950Z,1.95
2019-02-17T05:47:18.739Z,2.06
2019-02-17T05:49:26.514Z,2.14
2019-02-17T05:51:34.028Z,2.24
2019-02-17T05:53:41.315Z,2.31
2019-02-17T05:55:48.724Z,2.38
2019-02-17T05:57:55.562Z,2.41
2019-02-17T06:00:02.598Z,2.44
2019-02-17T06:02:09.688Z,2.46
2019-02-17T06:04:16.881Z,2.47
2019-02-17T06:06:24.663Z,2.49
2019-02-17T06:08:31.592Z,2.53
2019-02-17T06:10:38.987Z,2.58
2019-02-17T06:12:45.893Z,2.63
2019-02-17T06:14:53.163Z,2.69
2019-02-17T06:17:00.573Z,2.72
2019-02-17T06:19:07.644Z,2.76
2019-02-17T06:21:14.763Z,2.82
2019-02-17T06:23:22.091Z,2.86
2019-02-17T06:25:29.039Z,3.27
2019-02-17T06:27:36.163Z,3.26
2019-02-17T06:29:43.216Z,3.98
2019-02-17T06:31:50.169Z,4.22
2019-02-17T06:33:57.288Z,4.71
2019-02-17T06:36:04.592Z,5.01
2019-02-17T06:38:11.358Z,4.72
2019-02-17T06:40:18.940Z,4.46
2019-02-17T06:42:25.930Z,4.31
2019-02-17T06:44:32.845Z,4.11
2019-02-17T06:46:41.161Z,4.18
2019-02-17T06:48:48.171Z,4.25
2019-02-17T06:50:55.194Z,4.29
2019-02-17T06:53:02.324Z,4.20
2019-02-17T06:55:14.780Z,4.41
2019-02-17T06:57:23.296Z,4.13
2019-02-17T06:59:30.688Z,3.95
2019-02-17T07:01:37.865Z,3.74
2019-02-17T07:03:45.242Z,3.69
2019-02-17T07:05:54.166Z,3.65
2019-02-17T07:08:01.466Z,3.62
2019-02-17T07:10:08.545Z,3.67
2019-02-17T07:12:15.621Z,3.70
2019-02-17T07:14:23.086Z,3.71
2019-02-17T07:16:29.908Z,3.74
2019-02-17T07:18:37.237Z,3.73
2019-02-17T07:20:44.345Z,3.87
2019-02-17T07:22:52.006Z,3.85
2019-02-17T07:24:59.216Z,3.80
2019-02-17T07:27:06.097Z,3.85
2019-02-17T07:29:13.279Z,3.89
2019-02-17T07:31:22.422Z,3.97
2019-02-17T07:33:28.930Z,4.03
2019-02-17T07:35:37.208Z,4.15
2019-02-17T07:37:44.557Z,4.27
2019-02-17T07:39:51.753Z,4.28
2019-02-17T07:41:58.504Z,4.29
2019-02-17T07:44:05.335Z,4.33
2019-02-17T07:46:13.034Z,4.46
2019-02-17T07:48:20.566Z,4.66
2019-02-17T07:50:27.445Z,4.86
2019-02-17T07:52:34.528Z,5.02
2019-02-17T07:54:43.541Z,5.14
2019-02-17T07:56:50.565Z,5.20
2019-02-17T07:58:57.606Z,5.43
2019-02-17T08:01:07.202Z,5.42
2019-02-17T08:03:15.797Z,5.39
2019-02-17T08:05:22.663Z,5.32
2019-02-17T08:07:29.721Z,5.30
2019-02-17T08:09:37.109Z,5.28
2019-02-17T08:11:48.286Z,5.22
2019-02-17T08:13:57.186Z,5.16
2019-02-17T08:16:04.561Z,5.22
2019-02-17T08:18:11.617Z,5.33
2019-02-17T08:20:18.818Z,5.42
2019-02-17T08:22:25.633Z,5.45
2019-02-17T08:24:32.464Z,5.49
2019-02-17T08:26:39.947Z,5.53
2019-02-17T08:28:48.309Z,5.58
2019-02-17T08:30:55.191Z,5.54
2019-02-17T08:33:04.116Z,5.60
2019-02-17T08:35:12.276Z,5.60
2019-02-17T08:37:19.068Z,5.64
2019-02-17T08:39:25.939Z,5.69
2019-02-17T08:41:33.700Z,5.70
2019-02-17T08:43:41.848Z,5.74
2019-02-17T08:45:48.816Z,5.73
2019-02-17T08:47:56.076Z,5.78
2019-02-17T08:50:05.740Z,5.83
2019-02-17T08:52:12.623Z,5.83
2019-02-17T08:54:19.543Z,5.89
2019-02-17T08:56:26.564Z,5.92
2019-02-17T08:58:33.742Z,5.96
2019-02-17T09:00:41.704Z,5.99
2019-02-17T09:02:48.818Z,6.04
2019-02-17T09:04:55.815Z,6.08
2019-02-17T09:07:02.985Z,6.16
2019-02-17T09:09:10.778Z,6.15
2019-02-17T09:11:18.179Z,6.18
2019-02-17T09:13:25.481Z,6.18
2019-02-17T09:15:32.340Z,6.18
2019-02-17T09:17:39.571Z,6.20
2019-02-17T09:19:46.522Z,6.24
2019-02-17T09:21:53.713Z,6.14
2019-02-17T09:24:01.069Z,6.04
2019-02-17T09:26:08.504Z,5.99
2019-02-17T09:28:15.734Z,5.96
2019-02-17T09:30:22.922Z,5.99
2019-02-17T09:32:30.139Z,6.05
2019-02-17T09:34:37.100Z,6.13
2019-02-17T09:36:44.372Z,6.21
2019-02-17T09:38:51.542Z,6.30
2019-02-17T09:40:58.430Z,6.41
2019-02-17T09:43:06.405Z,6.52
2019-02-17T09:45:17.926Z,6.63
2019-02-17T09:47:24.800Z,6.75
2019-02-17T09:49:32.247Z,6.88
2019-02-17T09:51:40.593Z,7.01
2019-02-17T09:53:47.719Z,7.07
2019-02-17T09:55:55.198Z,7.19
2019-02-17T09:58:02.417Z,7.26
2019-02-17T10:00:17.142Z,7.47
2019-02-17T10:02:26.627Z,7.77
2019-02-17T10:04:33.168Z,7.99
2019-02-17T10:06:40.094Z,8.14
2019-02-17T10:08:47.637Z,8.10
2019-02-17T10:10:54.507Z,8.24
2019-02-17T10:13:01.633Z,8.44
2019-02-17T10:15:12.902Z,8.63
2019-02-17T10:17:21.770Z,8.73
2019-02-17T10:19:28.674Z,8.79
2019-02-17T10:21:35.844Z,9.04
2019-02-17T10:23:44.212Z,9.15
2019-02-17T10:25:56.392Z,9.28
2019-02-17T10:28:02.717Z,9.43
2019-02-17T10:30:15.647Z,9.47
2019-02-17T10:32:22.626Z,9.52
2019-02-17T10:34:29.793Z,9.61
2019-02-17T10:36:36.800Z,9.71
2019-02-17T10:38:43.667Z,9.82
2019-02-17T10:40:50.957Z,9.89
2019-02-17T10:42:59.637Z,9.81
2019-02-17T10:45:07.724Z,9.91
2019-02-17T10:47:16.071Z,10.05
2019-02-17T10:49:23.107Z,10.21
2019-02-17T10:51:30.237Z,10.29
2019-02-17T10:53:36.990Z,10.24
2019-02-17T10:55:43.866Z,10.26
2019-02-17T10:57:50.994Z,10.35
2019-02-17T10:59:58.150Z,10.41
2019-02-17T11:02:04.997Z,10.43
2019-02-17T11:04:11.966Z,10.46
2019-02-17T11:06:19.166Z,10.51
2019-02-17T11:08:26.227Z,10.57
2019-02-17T11:10:33.453Z,10.61
2019-02-17T11:12:40.910Z,10.66
2019-02-17T11:14:48.396Z,10.80
2019-02-17T11:16:55.686Z,10.74
2019-02-17T11:19:02.674Z,10.64
2019-02-17T11:21:09.855Z,10.57
2019-02-17T11:23:18.435Z,10.53
2019-02-17T11:25:25.408Z,10.48
2019-02-17T11:27:32.827Z,10.46
2019-02-17T11:29:41.616Z,10.55
2019-02-17T11:31:49.351Z,10.62
2019-02-17T11:33:56.054Z,10.63
2019-02-17T11:36:03.396Z,10.64
2019-02-17T11:38:10.644Z,10.74
2019-02-17T11:40:17.754Z,10.84
2019-02-17T11:42:24.944Z,10.90
2019-02-17T11:44:32.097Z,10.92
2019-02-17T11:46:39.346Z,11.01
2019-02-17T11:48:47.437Z,10.84
2019-02-17T11:50:54.383Z,10.71
2019-02-17T11:53:01.405Z,10.75
2019-02-17T11:55:12.157Z,10.71
2019-02-17T11:57:19.008Z,10.71
2019-02-17T11:59:26.417Z,10.68
2019-02-17T12:01:33.456Z,10.68
2019-02-17T12:03:40.366Z,10.82
2019-02-17T12:05:47.525Z,10.92
2019-02-17T12:07:54.515Z,11.02
2019-02-17T12:10:02.107Z,10.95
2019-02-17T12:12:09.526Z,10.93
2019-02-17T12:14:16.636Z,10.97
2019-02-17T12:16:25.567Z,11.02
2019-02-17T12:18:36.982Z,11.09
2019-02-17T12:20:58.453Z,11.02
2019-02-17T12:23:10.443Z,10.99
2019-02-17T12:25:18.172Z,11.03
2019-02-17T12:27:30.157Z,11.03
2019-02-17T12:29:39.137Z,10.96
2019-02-17T12:31:47.024Z,10.97
2019-02-17T12:33:54.307Z,11.00
2019-02-17T12:36:02.646Z,11.00
2019-02-17T12:38:09.897Z,10.97
2019-02-17T12:40:17.058Z,11.07
2019-02-17T12:42:23.946Z,11.05
2019-02-17T12:44:31.109Z,10.95
2019-02-17T12:46:38.506Z,10.92
2019-02-17T12:48:46.078Z,10.89
2019-02-17T12:50:53.117Z,10.75
2019-02-17T12:53:00.865Z,10.70
2019-02-17T12:55:09.877Z,10.79
2019-02-17T12:57:17.136Z,10.88
2019-02-17T12:59:25.707Z,10.91
2019-02-17T13:01:32.683Z,10.88
2019-02-17T13:03:41.036Z,10.82
2019-02-17T13:05:48.067Z,10.85
2019-02-17T13:07:55.117Z,10.83
2019-02-17T13:10:01.996Z,10.90
2019-02-17T13:12:09.346Z,11.01
2019-02-17T13:14:16.469Z,11.02
2019-02-17T13:16:27.362Z,10.96
2019-02-17T13:18:34.256Z,10.88
2019-02-17T13:20:41.287Z,10.83
2019-02-17T13:22:48.576Z,10.87
2019-02-17T13:24:55.705Z,10.88
2019-02-17T13:27:03.199Z,10.86
2019-02-17T13:29:10.527Z,10.89
2019-02-17T13:31:17.461Z,10.93
2019-02-17T13:33:24.259Z,10.93
2019-02-17T13:35:31.148Z,10.92
2019-02-17T13:37:38.237Z,10.92
2019-02-17T13:39:46.798Z,11.01
2019-02-17T13:41:53.636Z,10.96
2019-02-17T13:44:00.436Z,11.09
2019-02-17T13:46:07.484Z,11.01
2019-02-17T13:48:15.357Z,10.96
2019-02-17T13:50:24.515Z,10.95
2019-02-17T13:52:32.076Z,10.83
2019-02-17T13:54:39.734Z,10.85
2019-02-17T13:56:46.864Z,10.90
2019-02-17T13:58:54.274Z,10.88
2019-02-17T14:01:02.023Z,10.85
2019-02-17T14:03:08.997Z,10.75
2019-02-17T14:05:16.476Z,10.71
2019-02-17T14:07:23.961Z,10.65
2019-02-17T14:09:32.222Z,10.65
2019-02-17T14:11:40.686Z,10.60
2019-02-17T14:13:47.813Z,10.60
2019-02-17T14:15:54.681Z,10.61
2019-02-17T14:18:04.244Z,10.61
2019-02-17T14:20:12.637Z,10.56
2019-02-17T14:22:19.446Z,10.52
2019-02-17T14:24:26.985Z,10.48
2019-02-17T14:26:34.753Z,10.46
2019-02-17T14:28:41.873Z,10.38
2019-02-17T14:30:48.846Z,10.40
2019-02-17T14:32:56.317Z,10.35
2019-02-17T14:35:05.087Z,10.39
2019-02-17T14:37:13.428Z,10.37
2019-02-17T14:39:26.545Z,10.34
2019-02-17T14:41:34.574Z,10.30
2019-02-17T14:43:41.736Z,10.21
2019-02-17T14:45:48.728Z,10.16
2019-02-17T14:47:55.816Z,10.13
2019-02-17T14:50:03.566Z,10.07
2019-02-17T14:52:11.566Z,10.03
2019-02-17T14:54:18.933Z,9.97
2019-02-17T14:56:25.681Z,9.92
2019-02-17T14:58:32.656Z,9.88
2019-02-17T15:00:39.624Z,9.82
2019-02-17T15:02:48.135Z,9.78
2019-02-17T15:04:55.216Z,9.74
2019-02-17T15:07:02.794Z,9.72
2019-02-17T15:09:11.197Z,9.71
2019-02-17T15:11:18.476Z,9.67
2019-02-17T15:13:25.740Z,9.62
2019-02-17T15:15:32.764Z,9.58
2019-02-17T15:17:40.037Z,9.53
2019-02-17T15:19:47.550Z,9.48
2019-02-17T15:21:55.011Z,9.46
2019-02-17T15:24:01.997Z,9.45
2019-02-17T15:26:09.323Z,9.42
2019-02-17T15:28:16.146Z,9.38
2019-02-17T15:30:23.333Z,9.37
2019-02-17T15:32:30.456Z,9.36
2019-02-17T15:34:37.998Z,9.34
2019-02-17T15:36:45.953Z,9.31
2019-02-17T15:38:53.284Z,9.28
2019-02-17T15:41:00.967Z,9.26
2019-02-17T15:43:08.927Z,9.22
2019-02-17T15:45:16.586Z,9.20
2019-02-17T15:47:23.566Z,9.18
2019-02-17T15:49:30.676Z,9.18
2019-02-17T15:51:38.628Z,9.16
2019-02-17T15:53:46.242Z,9.13
2019-02-17T15:55:53.517Z,9.13
2019-02-17T15:58:00.726Z,9.09
2019-02-17T16:00:18.313Z,9.08
2019-02-17T16:02:26.006Z,9.03
2019-02-17T16:04:34.007Z,9.01
2019-02-17T16:06:42.987Z,9.00
2019-02-17T16:08:52.254Z,8.93
2019-02-17T16:10:59.458Z,8.89
2019-02-17T16:13:06.988Z,8.84
2019-02-17T16:15:18.398Z,8.83
2019-02-17T16:17:25.704Z,8.81
2019-02-17T16:19:32.777Z,8.77
2019-02-17T16:21:40.094Z,8.77
2019-02-17T16:23:47.991Z,8.77
2019-02-17T16:26:15.932Z,8.76
2019-02-17T16:28:23.527Z,8.76
2019-02-17T16:30:31.014Z,8.73
2019-02-17T16:32:39.037Z,8.72
2019-02-17T16:34:46.227Z,8.72
2019-02-17T16:36:53.509Z,8.70
2019-02-17T16:39:00.878Z,8.66
2019-02-17T16:41:09.684Z,8.66
2019-02-17T16:43:17.070Z,8.64
2019-02-17T16:45:24.236Z,8.61
2019-02-17T16:47:31.947Z,8.61
2019-02-17T16:49:39.595Z,8.58
2019-02-17T16:51:47.177Z,8.58
2019-02-17T16:53:54.436Z,8.58
2019-02-17T16:56:01.707Z,8.58
2019-02-17T16:58:09.536Z,8.59
2019-02-17T17:00:22.326Z,8.59
2019-02-17T17:02:30.376Z,8.59
2019-02-17T17:04:47.880Z,8.59
2019-02-17T17:06:47.988Z,8.59
2019-02-17T17:08:55.266Z,8.60
2019-02-17T17:11:02.626Z,8.58
2019-02-17T17:13:11.344Z,8.56
2019-02-17T17:15:19.277Z,8.55
2019-02-17T17:17:26.596Z,8.54
2019-02-17T17:19:33.806Z,8.51
2019-02-17T17:21:43.014Z,8.49
2019-02-17T17:23:50.176Z,8.47
2019-02-17T17:25:57.775Z,8.42
2019-02-17T17:28:05.124Z,8.38
2019-02-17T17:30:20.206Z,8.33
2019-02-17T17:32:29.517Z,8.31
2019-02-17T17:34:38.397Z,8.28
2019-02-17T17:36:46.417Z,8.25
2019-02-17T17:38:53.607Z,8.21
2019-02-17T17:41:01.057Z,8.15
2019-02-17T17:43:09.737Z,8.08
2019-02-17T17:45:19.963Z,7.98
2019-02-17T17:47:27.257Z,7.88
2019-02-17T17:49:34.447Z,7.80
2019-02-17T17:51:42.106Z,7.73
2019-02-17T17:53:49.406Z,7.66
2019-02-17T17:55:56.517Z,7.56
2019-02-17T17:58:04.037Z,7.49
2019-02-17T18:00:21.207Z,7.42
2019-02-17T18:02:28.874Z,7.35
2019-02-17T18:04:36.173Z,7.31
2019-02-17T18:06:43.643Z,7.29
2019-02-17T18:08:51.193Z,7.30
2019-02-17T18:10:58.508Z,7.26
2019-02-17T18:13:05.917Z,7.20
2019-02-17T18:15:19.155Z,7.17
2019-02-17T18:17:26.682Z,7.13
2019-02-17T18:19:33.797Z,7.11
2019-02-17T18:21:41.489Z,7.08
2019-02-17T18:23:48.789Z,7.02
2019-02-17T18:25:56.056Z,6.97
2019-02-17T18:28:03.864Z,6.92
2019-02-17T18:30:21.520Z,6.88
2019-02-17T18:32:30.314Z,6.84
2019-02-17T18:34:37.515Z,6.78
2019-02-17T18:36:46.207Z,6.74
2019-02-17T18:38:54.816Z,6.69
2019-02-17T18:41:02.264Z,6.65
2019-02-17T18:43:09.597Z,6.57
2019-02-17T18:45:17.770Z,6.52
2019-02-17T18:47:25.951Z,6.44
2019-02-17T18:49:33.464Z,6.38
2019-02-17T18:51:41.800Z,6.30
2019-02-17T18:53:50.944Z,6.26
2019-02-17T18:55:58.185Z,6.23
2019-02-17T18:58:05.995Z,6.19
2019-02-17T19:00:26.052Z,6.14
2019-02-17T19:02:33.220Z,6.08
2019-02-17T19:04:40.920Z,6.07
2019-02-17T19:06:48.673Z,6.03
2019-02-17T19:08:56.767Z,5.99
2019-02-17T19:11:04.290Z,5.94
2019-02-17T19:13:11.963Z,5.92
2019-02-17T19:15:23.469Z,5.89
2019-02-17T19:17:51.201Z,5.82
2019-02-17T19:19:58.519Z,5.77
2019-02-17T19:22:05.789Z,5.75
2019-02-17T19:24:13.118Z,5.73
2019-02-17T19:26:20.360Z,5.66
2019-02-17T19:28:27.628Z,5.55
2019-02-17T19:30:35.021Z,5.48
2019-02-17T19:32:42.111Z,5.39
2019-02-17T19:34:49.369Z,5.33
2019-02-17T19:36:57.100Z,5.27
2019-02-17T19:39:06.412Z,5.22
2019-02-17T19:41:14.280Z,5.17
2019-02-17T19:43:22.042Z,5.11
2019-02-17T19:45:29.555Z,5.07
2019-02-17T19:47:37.202Z,5.03
2019-02-17T19:49:44.753Z,5.00
2019-02-17T19:51:52.316Z,5.00
2019-02-17T19:53:59.720Z,4.98
2019-02-17T19:56:07.533Z,4.96
2019-02-17T19:58:14.942Z,4.95
2019-02-17T20:00:25.173Z,4.92
2019-02-17T20:02:33.974Z,4.90
2019-02-17T20:04:43.194Z,4.86
2019-02-17T20:06:50.754Z,4.84
2019-02-17T20:08:58.252Z,4.81
2019-02-17T20:11:05.760Z,4.78
2019-02-17T20:13:13.534Z,4.73
2019-02-17T20:15:22.353Z,4.67
2019-02-17T20:17:30.361Z,4.60
2019-02-17T20:19:37.772Z,4.56
2019-02-17T20:21:45.156Z,4.53
2019-02-17T20:23:52.853Z,4.50
2019-02-17T20:26:00.112Z,4.48
2019-02-17T20:28:07.624Z,4.45
2019-02-17T20:30:16.567Z,4.42
2019-02-17T20:32:23.881Z,4.40
2019-02-17T20:34:31.370Z,4.33
2019-02-17T20:36:38.540Z,4.29
2019-02-17T20:38:45.848Z,4.23
2019-02-17T20:40:55.053Z,4.19
2019-02-17T20:43:02.558Z,4.15
2019-02-17T20:45:12.344Z,4.15
2019-02-17T20:47:19.814Z,4.15
2019-02-17T20:49:27.189Z,4.15
2019-02-17T20:51:34.713Z,4.13
2019-02-17T20:53:43.302Z,4.14
2019-02-17T20:55:50.741Z,4.11
2019-02-17T20:57:57.933Z,4.07
2019-02-17T21:00:06.710Z,4.06
2019-02-17T21:02:13.854Z,4.05
2019-02-17T21:04:21.622Z,4.02
2019-02-17T21:06:29.329Z,4.02
2019-02-17T21:08:36.492Z,4.03
2019-02-17T21:10:43.992Z,4.04
2019-02-17T21:12:51.513Z,4.07
2019-02-17T21:14:59.182Z,4.11
2019-02-17T21:17:06.772Z,4.14
2019-02-17T21:19:14.052Z,4.17
2019-02-17T21:21:21.374Z,4.19
2019-02-17T21:23:28.856Z,4.21
2019-02-17T21:25:36.451Z,4.24
2019-02-17T21:27:43.923Z,4.28
2019-02-17T21:29:51.087Z,4.28
2019-02-17T21:31:58.259Z,4.27
2019-02-17T21:34:05.326Z,4.28
2019-02-17T21:36:22.545Z,4.29
2019-02-17T21:38:23.399Z,4.28
2019-02-17T21:40:30.876Z,4.25
2019-02-17T21:42:37.961Z,4.25
2019-02-17T21:44:44.842Z,4.26
2019-02-17T21:46:52.222Z,4.28
2019-02-17T21:48:59.311Z,4.26
2019-02-17T21:51:06.786Z,4.27
2019-02-17T21:53:20.585Z,4.29
2019-02-17T21:55:22.875Z,4.31
2019-02-17T21:57:30.164Z,4.34
2019-02-17T21:59:37.181Z,4.34
2019-02-17T22:01:44.282Z,4.36
2019-02-17T22:03:51.651Z,4.33
2019-02-17T22:05:58.652Z,4.31
2019-02-17T22:08:05.752Z,4.31
2019-02-17T22:10:20.757Z,4.29
2019-02-17T22:12:27.629Z,4.25
2019-02-17T22:14:35.871Z,4.22
2019-02-17T22:16:43.630Z,4.16
2019-02-17T22:18:50.707Z,4.13
2019-02-17T22:20:57.300Z,4.09
2019-02-17T22:23:04.130Z,4.04
2019-02-17T22:25:11.947Z,3.99
2019-02-17T22:27:18.778Z,3.92
2019-02-17T22:29:25.628Z,3.89
2019-02-17T22:31:32.478Z,3.85
2019-02-17T22:33:39.222Z,3.79
2019-02-17T22:35:46.218Z,3.73
2019-02-17T22:37:53.435Z,3.67
2019-02-17T22:40:00.838Z,3.62
2019-02-17T22:42:08.956Z,3.57
2019-02-17T22:44:16.328Z,3.50
2019-02-17T22:46:23.136Z,3.45
2019-02-17T22:48:30.038Z,3.39
2019-02-17T22:50:37.037Z,3.36
2019-02-17T22:52:46.544Z,3.31
2019-02-17T22:54:53.411Z,3.28
2019-02-17T22:57:00.609Z,3.25
2019-02-17T22:59:07.159Z,3.21
2019-02-17T23:01:16.247Z,3.19
2019-02-17T23:03:23.367Z,3.16
2019-02-17T23:05:30.318Z,3.13
2019-02-17T23:07:37.633Z,3.12
2019-02-17T23:09:44.593Z,3.12
2019-02-17T23:11:51.992Z,3.09
2019-02-17T23:13:59.378Z,3.09
2019-02-17T23:16:06.428Z,3.05
2019-02-17T23:18:14.584Z,3.00
2019-02-17T23:20:21.518Z,2.96
2019-02-17T23:22:28.977Z,2.91
2019-02-17T23:24:37.058Z,2.87
2019-02-17T23:26:44.216Z,2.85
2019-02-17T23:28:51.092Z,2.82
2019-02-17T23:30:58.660Z,2.82
2019-02-17T23:33:06.397Z,2.83
2019-02-17T23:35:13.900Z,2.80
2019-02-17T23:37:20.789Z,2.77
2019-02-17T23:39:27.839Z,2.74
2019-02-17T23:41:35.507Z,2.69
2019-02-17T23:43:42.605Z,2.67
2019-02-17T23:45:50.851Z,2.65
2019-02-17T23:47:59.917Z,2.65
2019-02-17T23:50:09.227Z,2.61
2019-02-17T23:52:16.524Z,2.57
2019-02-17T23:54:23.700Z,2.56
2019-02-17T23:56:32.141Z,2.51
2019-02-17T23:58:39.200Z,2.47
